Time;durP1;ratioP1;P1;durP2;ratioP2;P2;SDS_P1;SDS_P2;PMS_P1;PMS_P2;Temp;Humidity;BMP_temperature;BMP_pressure;BME280_temperature;BME280_humidity;BME280_pressure;Samples;Min_cycle;Max_cycle;Signal;HPM_P1;HPM_P2
2023/06/24 00:02:03;;;;;;;11.18;9.85;;;;;;;;;;5072194;28;20376;-64
2023/06/24 00:04:29;;;;;;;13.07;10.10;;;;;;;;;;5070583;28;20388;-65
2023/06/24 00:06:58;;;;;;;11.07;9.70;;;;;;;;;;5071914;28;20393;-65
2023/06/24 00:09:25;;;;;;;10.98;9.98;;;;;;;;;;5070522;28;20402;-66
2023/06/24 00:11:51;;;;;;;11.05;9.80;;;;;;;;;;5071816;28;20423;-65
2023/06/24 00:14:17;;;;;;;12.48;10.30;;;;;;;;;;5070448;28;20493;-65
2023/06/24 00:16:43;;;;;;;10.68;9.68;;;;;;;;;;5071954;28;20399;-65
2023/06/24 00:19:09;;;;;;;11.20;9.65;;;;;;;;;;5071855;28;20375;-65
2023/06/24 00:21:37;;;;;;;10.95;9.82;;;;;;;;;;5072029;28;20368;-65
2023/06/24 00:24:06;;;;;;;10.73;9.63;;;;;;;;;;5070461;28;20876;-65
2023/06/24 00:26:32;;;;;;;11.15;9.98;;;;;;;;;;5071787;28;20380;-65
2023/06/24 00:28:58;;;;;;;11.57;10.45;;;;;;;;;;5070596;28;20400;-65
2023/06/24 00:31:24;;;;;;;11.90;10.75;;;;;;;;;;5074526;28;20481;-66
2023/06/24 00:33:52;;;;;;;12.60;11.27;;;;;;;;;;5075690;28;20457;-65
2023/06/24 00:36:18;;;;;;;12.30;11.02;;;;;;;;;;5075443;28;20400;-65
2023/06/24 00:38:44;;;;;;;11.73;10.60;;;;;;;;;;5075423;28;20413;-65
2023/06/24 00:41:10;;;;;;;12.27;10.98;;;;;;;;;;5075230;28;20368;-65
2023/06/24 00:43:37;;;;;;;14.13;11.63;;;;;;;;;;5074204;28;20490;-65
2023/06/24 00:46:03;;;;;;;11.88;10.73;;;;;;;;;;5074094;28;20375;-65
2023/06/24 00:48:31;;;;;;;13.10;11.73;;;;;;;;;;5075382;28;20430;-64
2023/06/24 00:50:58;;;;;;;13.40;11.73;;;;;;;;;;5075139;28;20399;-65
2023/06/24 00:53:24;;;;;;;13.80;12.35;;;;;;;;;;5075301;28;20387;-65
2023/06/24 00:55:50;;;;;;;12.32;11.02;;;;;;;;;;5075300;28;20382;-65
2023/06/24 00:58:20;;;;;;;12.50;11.20;;;;;;;;;;5076178;28;20388;-65
2023/06/24 01:00:46;;;;;;;13.07;11.57;;;;;;;;;;5075484;28;20432;-65
2023/06/24 01:03:16;;;;;;;14.10;12.52;;;;;;;;;;5073819;28;20412;-65
2023/06/24 01:05:42;;;;;;;15.00;13.40;;;;;;;;;;5076729;28;20394;-65
2023/06/24 01:08:09;;;;;;;17.42;13.30;;;;;;;;;;5075419;28;20915;-65
2023/06/24 01:10:35;;;;;;;16.40;14.70;;;;;;;;;;5074777;28;20391;-65
2023/06/24 01:13:02;;;;;;;19.67;16.17;;;;;;;;;;5075110;28;20866;-65
2023/06/24 01:15:28;;;;;;;17.75;15.40;;;;;;;;;;5073466;28;20392;-65
2023/06/24 01:18:02;;;;;;;17.30;14.55;;;;;;;;;;5074762;28;20399;-64
2023/06/24 01:20:38;;;;;;;19.83;15.52;;;;;;;;;;5073359;28;20388;-65
2023/06/24 01:23:07;;;;;;;16.60;14.38;;;;;;;;;;5077901;28;20371;-65
2023/06/24 01:25:39;;;;;;;17.08;14.80;;;;;;;;;;5075842;28;20803;-65
2023/06/24 01:28:27;;;;;;;19.50;14.98;;;;;;;;;;5075063;28;20380;-65
2023/06/24 01:31:12;;;;;;;17.55;14.75;;;;;;;;;;5074744;28;20459;-65
2023/06/24 01:33:50;;;;;;;18.33;15.75;;;;;;;;;;5073149;28;20919;-65
2023/06/24 01:36:18;;;;;;;16.73;14.93;;;;;;;;;;5074658;28;20408;-65
2023/06/24 01:38:47;;;;;;;21.33;15.90;;;;;;;;;;5072841;28;20380;-65
2023/06/24 01:41:15;;;;;;;18.33;16.27;;;;;;;;;;5072743;28;20492;-65
2023/06/24 01:43:42;;;;;;;19.15;15.43;;;;;;;;;;5073631;28;20846;-65
2023/06/24 01:46:09;;;;;;;19.60;16.30;;;;;;;;;;5072844;28;20380;-65
2023/06/24 01:48:36;;;;;;;20.25;16.42;;;;;;;;;;5072793;28;20387;-65
2023/06/24 01:51:06;;;;;;;19.40;15.90;;;;;;;;;;5074028;28;20400;-65
2023/06/24 01:53:35;;;;;;;21.15;16.17;;;;;;;;;;5072643;28;20388;-65
2023/06/24 01:56:02;;;;;;;17.90;16.02;;;;;;;;;;5073941;28;20392;-65
2023/06/24 01:58:28;;;;;;;18.20;15.48;;;;;;;;;;5074220;28;20368;-65
2023/06/24 02:00:55;;;;;;;17.48;15.20;;;;;;;;;;5073790;28;20364;-65
2023/06/24 02:03:22;;;;;;;18.55;15.18;;;;;;;;;;5072670;28;20380;-65
2023/06/24 02:05:48;;;;;;;16.17;14.17;;;;;;;;;;5072558;28;20461;-65
2023/06/24 02:08:15;;;;;;;15.87;14.17;;;;;;;;;;5072701;28;20726;-65
2023/06/24 02:10:41;;;;;;;15.20;13.73;;;;;;;;;;5072329;28;20398;-65
2023/06/24 02:13:09;;;;;;;15.35;13.55;;;;;;;;;;5073594;28;20920;-65
2023/06/24 02:15:36;;;;;;;16.73;12.98;;;;;;;;;;5072363;28;20440;-65
2023/06/24 02:18:03;;;;;;;20.02;12.93;;;;;;;;;;5073990;28;20892;-65
2023/06/24 02:20:30;;;;;;;16.83;12.32;;;;;;;;;;5073668;28;20379;-65
2023/06/24 02:22:56;;;;;;;17.20;12.88;;;;;;;;;;5072271;28;20900;-65
2023/06/24 02:25:23;;;;;;;17.40;13.10;;;;;;;;;;5074281;28;20375;-65
2023/06/24 02:27:50;;;;;;;16.17;12.82;;;;;;;;;;5073567;28;20376;-65
2023/06/24 02:30:16;;;;;;;16.20;13.15;;;;;;;;;;5072244;28;20743;-65
2023/06/24 02:32:42;;;;;;;14.03;12.53;;;;;;;;;;5073550;28;20391;-64
2023/06/24 02:35:08;;;;;;;17.35;12.57;;;;;;;;;;5073219;28;20380;-64
2023/06/24 02:37:34;;;;;;;14.60;11.87;;;;;;;;;;5074701;28;20206;-64
2023/06/24 02:40:01;;;;;;;16.23;10.43;;;;;;;;;;5074227;28;20682;-64
2023/06/24 02:42:27;;;;;;;11.47;10.27;;;;;;;;;;5073230;28;20182;-64
2023/06/24 02:44:53;;;;;;;13.13;10.23;;;;;;;;;;5072883;28;20177;-64
2023/06/24 02:47:21;;;;;;;11.17;10.07;;;;;;;;;;5074226;28;20184;-63
2023/06/24 02:49:48;;;;;;;12.70;10.70;;;;;;;;;;5073960;28;20227;-64
2023/06/24 02:52:16;;;;;;;13.17;9.57;;;;;;;;;;5074077;28;20275;-64
2023/06/24 02:54:42;;;;;;;11.03;9.93;;;;;;;;;;5072504;28;20190;-64
2023/06/24 02:57:08;;;;;;;12.67;11.17;;;;;;;;;;5073804;28;20209;-64
2023/06/24 02:59:35;;;;;;;11.17;9.93;;;;;;;;;;5074363;28;20634;-65
2023/06/24 03:02:01;;;;;;;11.60;10.60;;;;;;;;;;5073961;28;20692;-65
2023/06/24 03:04:28;;;;;;;14.83;11.43;;;;;;;;;;5072519;28;20277;-64
2023/06/24 03:06:54;;;;;;;11.10;9.83;;;;;;;;;;5074030;28;20647;-64
2023/06/24 03:09:21;;;;;;;13.53;10.40;;;;;;;;;;5073735;28;20184;-64
2023/06/24 03:11:47;;;;;;;14.07;10.77;;;;;;;;;;5073767;28;20205;-64
2023/06/24 03:14:13;;;;;;;14.23;10.13;;;;;;;;;;5072397;28;20181;-65
2023/06/24 03:16:39;;;;;;;11.93;10.37;;;;;;;;;;5073612;28;20197;-66
2023/06/24 03:19:05;;;;;;;13.27;10.03;;;;;;;;;;5073605;28;20252;-66
2023/06/24 03:21:31;;;;;;;11.63;10.43;;;;;;;;;;5072555;28;20284;-66
2023/06/24 03:23:59;;;;;;;17.87;11.03;;;;;;;;;;5072777;28;20193;-66
2023/06/24 03:26:56;;;;;;;12.13;10.63;;;;;;;;;;5073913;28;20231;-65
2023/06/24 03:29:22;;;;;;;19.87;10.97;;;;;;;;;;5073900;28;20193;-66
2023/06/24 03:31:48;;;;;;;11.63;10.13;;;;;;;;;;5072217;28;20202;-68
2023/06/24 03:34:16;;;;;;;14.70;10.63;;;;;;;;;;5072244;28;20693;-66
2023/06/24 03:36:42;;;;;;;14.87;11.03;;;;;;;;;;5073410;28;20571;-66
2023/06/24 03:39:08;;;;;;;14.00;10.87;;;;;;;;;;5072210;28;20231;-65
2023/06/24 03:41:34;;;;;;;14.53;10.80;;;;;;;;;;5073585;28;20193;-66
2023/06/24 03:44:00;;;;;;;16.07;12.03;;;;;;;;;;5071937;28;20257;-66
2023/06/24 03:46:27;;;;;;;14.67;10.73;;;;;;;;;;5072216;28;20178;-65
2023/06/24 03:48:53;;;;;;;13.00;10.63;;;;;;;;;;5071858;28;20177;-66
2023/06/24 03:51:19;;;;;;;11.17;9.83;;;;;;;;;;5071894;28;20213;-66
2023/06/24 03:53:45;;;;;;;13.23;10.67;;;;;;;;;;5073216;28;20302;-65
2023/06/24 03:56:11;;;;;;;15.17;10.93;;;;;;;;;;5073026;28;20284;-64
2023/06/24 03:58:37;;;;;;;16.70;10.83;;;;;;;;;;5073348;28;20181;-66
2023/06/24 04:01:03;;;;;;;16.03;11.83;;;;;;;;;;5071902;28;20288;-65
2023/06/24 04:03:29;;;;;;;19.03;12.80;;;;;;;;;;5073167;28;20181;-66
2023/06/24 04:05:56;;;;;;;15.47;12.60;;;;;;;;;;5075860;28;20569;-65
2023/06/24 04:08:23;;;;;;;17.23;12.33;;;;;;;;;;5078320;28;20182;-66
2023/06/24 04:10:49;;;;;;;18.37;12.43;;;;;;;;;;5078624;28;20225;-66
2023/06/24 04:13:15;;;;;;;15.80;12.20;;;;;;;;;;5080890;28;20600;-67
2023/06/24 04:15:42;;;;;;;21.90;13.23;;;;;;;;;;5079134;28;20201;-66
2023/06/24 04:18:09;;;;;;;19.17;12.80;;;;;;;;;;5079676;28;20259;-66
2023/06/24 04:20:35;;;;;;;23.43;13.30;;;;;;;;;;5078442;28;20201;-66
2023/06/24 04:23:01;;;;;;;24.53;13.87;;;;;;;;;;5078362;28;20177;-67
2023/06/24 04:25:27;;;;;;;21.87;14.53;;;;;;;;;;5079777;28;20184;-66
2023/06/24 04:27:53;;;;;;;20.53;14.13;;;;;;;;;;5079591;28;20239;-66
2023/06/24 04:30:19;;;;;;;18.33;13.40;;;;;;;;;;5080028;28;20266;-66
2023/06/24 04:32:45;;;;;;;17.60;13.93;;;;;;;;;;5078420;28;20293;-66
2023/06/24 04:35:11;;;;;;;17.17;12.90;;;;;;;;;;5079535;28;20186;-66
2023/06/24 04:37:37;;;;;;;18.73;13.53;;;;;;;;;;5078177;28;20232;-66
2023/06/24 04:40:03;;;;;;;18.73;13.33;;;;;;;;;;5079765;28;20577;-66
2023/06/24 04:42:30;;;;;;;17.83;13.70;;;;;;;;;;5079632;28;20177;-66
2023/06/24 04:44:55;;;;;;;15.23;12.13;;;;;;;;;;5079445;28;20673;-66
2023/06/24 04:47:21;;;;;;;17.13;12.30;;;;;;;;;;5079535;28;20157;-66
2023/06/24 04:49:47;;;;;;;14.97;12.60;;;;;;;;;;5078245;28;20407;-66
2023/06/24 04:52:14;;;;;;;16.48;12.55;;;;;;;;;;5077295;28;20479;-66
2023/06/24 04:54:40;;;;;;;13.98;12.45;;;;;;;;;;5078193;28;20844;-66
2023/06/24 04:57:07;;;;;;;14.95;12.40;;;;;;;;;;5078140;28;20514;-66
2023/06/24 04:59:33;;;;;;;17.27;12.87;;;;;;;;;;5078598;28;20390;-66
2023/06/24 05:01:59;;;;;;;17.00;13.40;;;;;;;;;;5078111;28;20463;-66
2023/06/24 05:04:25;;;;;;;14.63;12.00;;;;;;;;;;5076863;28;20383;-66
2023/06/24 05:06:51;;;;;;;14.63;13.07;;;;;;;;;;5076891;28;20392;-67
2023/06/24 05:09:17;;;;;;;14.13;12.63;;;;;;;;;;5078083;28;20429;-67
2023/06/24 05:11:42;;;;;;;;;;;;;;;;;;5079550;28;20029;-67
2023/06/24 05:14:08;;;;;;;;;;;;;;;;;;5079665;28;20366;-65
2023/06/24 05:16:34;;;;;;;;;;;;;;;;;;5078991;28;19908;-66
2023/06/24 05:19:00;;;;;;;;;;;;;;;;;;5075047;28;19951;-66
2023/06/24 05:21:26;;;;;;;;;;;;;;;;;;5076232;28;19951;-66
2023/06/24 05:23:52;;;;;;;;;;;;;;;;;;5076171;28;19911;-66
2023/06/24 05:26:18;;;;;;;;;;;;;;;;;;5076503;28;19908;-66
2023/06/24 05:28:43;;;;;;;;;;;;;;;;;;5074851;28;19904;-66
2023/06/24 05:31:09;;;;;;;;;;;;;;;;;;5075925;28;19908;-67
2023/06/24 05:33:35;;;;;;;;;;;;;;;;;;5074820;28;20274;-66
2023/06/24 05:36:01;;;;;;;20.25;16.52;;;;;;;;;;5072979;28;20384;-67
2023/06/24 05:38:27;;;;;;;18.20;15.07;;;;;;;;;;5075645;28;20180;-67
2023/06/24 05:40:53;;;;;;;18.50;14.53;;;;;;;;;;5075360;28;20265;-67
2023/06/24 05:43:19;;;;;;;18.23;15.00;;;;;;;;;;5075337;28;20177;-67
2023/06/24 05:45:45;;;;;;;15.60;13.97;;;;;;;;;;5074132;28;20189;-67
2023/06/24 05:48:11;;;;;;;16.37;14.77;;;;;;;;;;5075593;28;20265;-67
2023/06/24 05:50:37;;;;;;;21.27;14.83;;;;;;;;;;5075062;28;20221;-67
2023/06/24 05:53:03;;;;;;;20.03;15.90;;;;;;;;;;5075769;28;20212;-66
2023/06/24 05:55:29;;;;;;;19.77;15.17;;;;;;;;;;5075352;28;20227;-67
2023/06/24 05:57:55;;;;;;;19.40;15.47;;;;;;;;;;5073776;28;20243;-66
2023/06/24 06:00:21;;;;;;;20.13;16.37;;;;;;;;;;5075274;28;20190;-66
2023/06/24 06:02:47;;;;;;;18.70;16.20;;;;;;;;;;5073692;28;20651;-67
2023/06/24 06:05:13;;;;;;;21.33;16.07;;;;;;;;;;5073785;28;20185;-67
2023/06/24 06:07:39;;;;;;;20.30;16.87;;;;;;;;;;5075071;28;20196;-66
2023/06/24 06:10:06;;;;;;;23.40;17.83;;;;;;;;;;5075287;28;20193;-67
2023/06/24 06:12:32;;;;;;;21.47;17.77;;;;;;;;;;5074828;28;20184;-66
2023/06/24 06:14:58;;;;;;;21.17;18.20;;;;;;;;;;5074753;28;20260;-67
2023/06/24 06:17:24;;;;;;;23.90;17.03;;;;;;;;;;5074741;28;20202;-67
2023/06/24 06:19:50;;;;;;;24.23;17.87;;;;;;;;;;5074757;28;20208;-68
2023/06/24 06:22:16;;;;;;;24.13;16.87;;;;;;;;;;5074951;28;20176;-66
2023/06/24 06:24:42;;;;;;;23.60;17.23;;;;;;;;;;5074671;28;20185;-67
2023/06/24 06:27:11;;;;;;;20.47;17.77;;;;;;;;;;5073429;28;20189;-67
2023/06/24 06:29:37;;;;;;;20.10;17.93;;;;;;;;;;5074488;28;20228;-67
2023/06/24 06:32:03;;;;;;;22.67;17.83;;;;;;;;;;5074488;28;20177;-66
2023/06/24 06:34:29;;;;;;;25.43;19.47;;;;;;;;;;5074555;28;20178;-67
2023/06/24 06:36:55;;;;;;;24.53;18.27;;;;;;;;;;5073026;28;20205;-67
2023/06/24 06:39:21;;;;;;;21.90;19.57;;;;;;;;;;5073212;28;20178;-65
2023/06/24 06:41:47;;;;;;;21.70;18.80;;;;;;;;;;5074619;28;20198;-65
2023/06/24 06:44:12;;;;;;;20.97;18.43;;;;;;;;;;5074361;28;20181;-66
2023/06/24 06:46:38;;;;;;;21.43;19.13;;;;;;;;;;5074544;28;20312;-65
2023/06/24 06:49:04;;;;;;;27.63;19.70;;;;;;;;;;5074524;28;20239;-65
2023/06/24 06:51:30;;;;;;;22.60;19.60;;;;;;;;;;5098539;22;20233;-63
2023/06/24 06:53:56;;;;;;;21.47;18.00;;;;;;;;;;5073186;28;20264;-63
2023/06/24 06:56:26;;;;;;;23.33;20.93;;;;;;;;;;5074490;28;20205;-64
2023/06/24 06:58:52;;;;;;;23.60;20.13;;;;;;;;;;5074991;28;20177;-63
2023/06/24 07:01:18;;;;;;;23.27;19.70;;;;;;;;;;5074521;28;20197;-64
2023/06/24 07:03:44;;;;;;;30.47;22.07;;;;;;;;;;5074992;28;20181;-64
2023/06/24 07:06:10;;;;;;;23.87;21.37;;;;;;;;;;5073110;28;20268;-63
2023/06/24 07:08:36;;;;;;;23.83;21.27;;;;;;;;;;5074378;28;20223;-63
2023/06/24 07:11:02;;;;;;;23.33;20.20;;;;;;;;;;5074382;28;20198;-64
2023/06/24 07:13:28;;;;;;;22.83;20.07;;;;;;;;;;5074437;28;20208;-63
2023/06/24 07:15:54;;;;;;;22.97;20.20;;;;;;;;;;5074825;28;20173;-64
2023/06/24 07:18:20;;;;;;;21.93;19.73;;;;;;;;;;5073480;28;20201;-64
2023/06/24 07:20:46;;;;;;;21.17;19.00;;;;;;;;;;5072804;28;20201;-63
2023/06/24 07:23:12;;;;;;;21.77;17.33;;;;;;;;;;5072744;28;20205;-63
2023/06/24 07:25:38;;;;;;;24.83;18.13;;;;;;;;;;5073118;28;20181;-64
2023/06/24 07:28:04;;;;;;;19.60;17.60;;;;;;;;;;5074642;28;20185;-63
2023/06/24 07:30:30;;;;;;;17.67;15.87;;;;;;;;;;5074595;28;20247;-66
2023/06/24 07:32:56;;;;;;;16.70;14.17;;;;;;;;;;5073289;28;20178;-64
2023/06/24 07:35:22;;;;;;;15.20;13.70;;;;;;;;;;5073563;28;20186;-63
2023/06/24 07:37:48;;;;;;;15.70;14.13;;;;;;;;;;5073166;28;20292;-65
2023/06/24 07:40:14;;;;;;;16.87;13.73;;;;;;;;;;5073767;28;20190;-65
2023/06/24 07:42:40;;;;;;;17.67;13.03;;;;;;;;;;5074581;28;20268;-64
2023/06/24 07:45:07;;;;;;;15.23;13.73;;;;;;;;;;5074409;28;20210;-64
2023/06/24 07:47:33;;;;;;;15.00;12.67;;;;;;;;;;5073039;28;20178;-65
2023/06/24 07:49:59;;;;;;;12.97;11.67;;;;;;;;;;5072784;28;20215;-65
2023/06/24 07:52:24;;;;;;;13.73;11.27;;;;;;;;;;5074349;28;20180;-64
2023/06/24 07:54:50;;;;;;;12.93;10.83;;;;;;;;;;5074498;28;20174;-64
2023/06/24 07:57:16;;;;;;;14.83;11.30;;;;;;;;;;5074447;28;20208;-65
2023/06/24 07:59:43;;;;;;;12.13;10.83;;;;;;;;;;5072996;28;20220;-65
2023/06/24 08:02:09;;;;;;;11.27;10.17;;;;;;;;;;5074483;28;20205;-66
2023/06/24 08:04:35;;;;;;;12.00;9.63;;;;;;;;;;5073289;28;20182;-66
2023/06/24 08:07:01;;;;;;;11.27;10.07;;;;;;;;;;5077593;28;20185;-66
2023/06/24 08:09:27;;;;;;;10.10;9.10;;;;;;;;;;5077564;28;20184;-66
2023/06/24 08:11:52;;;;;;;12.50;9.30;;;;;;;;;;5074220;28;20627;-66
2023/06/24 08:14:18;;;;;;;9.80;8.47;;;;;;;;;;5074760;28;20182;-66
2023/06/24 08:16:44;;;;;;;9.67;8.77;;;;;;;;;;5074741;28;20237;-66
2023/06/24 08:19:10;;;;;;;11.17;8.40;;;;;;;;;;5074571;28;20180;-64
2023/06/24 08:21:37;;;;;;;10.17;8.87;;;;;;;;;;5075321;28;20626;-66
2023/06/24 08:24:03;;;;;;;10.33;9.23;;;;;;;;;;5074867;28;20177;-66
2023/06/24 08:26:29;;;;;;;8.80;7.73;;;;;;;;;;5075626;28;20178;-67
2023/06/24 08:28:55;;;;;;;11.97;9.53;;;;;;;;;;5073522;28;20182;-67
2023/06/24 08:31:24;;;;;;;14.63;10.50;;;;;;;;;;5074242;28;20280;-67
2023/06/24 08:33:52;;;;;;;11.03;9.47;;;;;;;;;;5074476;28;20174;-67
2023/06/24 08:36:18;;;;;;;10.13;8.77;;;;;;;;;;5074231;28;20188;-66
2023/06/24 08:38:44;;;;;;;9.83;8.63;;;;;;;;;;5074386;28;20253;-68
2023/06/24 08:41:10;;;;;;;11.10;8.73;;;;;;;;;;5073632;28;20566;-69
2023/06/24 08:43:37;;;;;;;9.07;8.13;;;;;;;;;;5074218;28;20202;-67
2023/06/24 08:46:03;;;;;;;10.37;9.23;;;;;;;;;;5075285;28;20541;-66
2023/06/24 08:48:30;;;;;;;9.13;7.63;;;;;;;;;;5075792;28;20170;-64
2023/06/24 08:50:58;;;;;;;13.43;8.70;;;;;;;;;;5075145;28;20217;-66
2023/06/24 08:53:26;;;;;;;9.93;8.70;;;;;;;;;;5078116;28;20547;-66
2023/06/24 08:55:54;;;;;;;15.77;10.63;;;;;;;;;;5079212;28;20188;-66
2023/06/24 08:58:20;;;;;;;15.90;10.30;;;;;;;;;;5078440;28;20197;-66
2023/06/24 09:00:46;;;;;;;10.70;9.47;;;;;;;;;;5079073;28;20201;-66
2023/06/24 09:03:12;;;;;;;10.37;8.50;;;;;;;;;;5078272;28;20189;-66
2023/06/24 09:05:38;;;;;;;11.03;8.57;;;;;;;;;;5078552;28;20174;-65
2023/06/24 09:08:04;;;;;;;10.23;8.60;;;;;;;;;;5077340;28;20188;-67
2023/06/24 09:10:34;;;;;;;13.77;8.87;;;;;;;;;;5078322;28;20205;-66
2023/06/24 09:13:01;;;;;;;9.97;8.87;;;;;;;;;;5077830;28;20663;-65
2023/06/24 09:15:30;;;;;;;10.80;9.23;;;;;;;;;;5078009;28;20224;-66
2023/06/24 09:17:56;;;;;;;9.30;7.90;;;;;;;;;;5076243;28;20330;-66
2023/06/24 09:20:22;;;;;;;10.10;7.67;;;;;;;;;;5076477;28;20663;-66
2023/06/24 09:22:49;;;;;;;9.50;7.77;;;;;;;;;;5076108;28;20179;-66
2023/06/24 09:25:21;;;;;;;9.67;7.67;;;;;;;;;;5076967;28;20169;-66
2023/06/24 09:27:51;;;;;;;9.20;7.40;;;;;;;;;;5076658;28;20187;-66
2023/06/24 09:30:21;;;;;;;10.63;8.00;;;;;;;;;;5077399;28;20739;-66
2023/06/24 09:32:51;;;;;;;9.97;7.30;;;;;;;;;;5076101;28;20560;-65
2023/06/24 09:35:21;;;;;;;6.83;5.93;;;;;;;;;;5075895;28;20192;-66
2023/06/24 09:37:54;;;;;;;6.77;5.97;;;;;;;;;;5075987;28;20198;-66
2023/06/24 09:40:20;;;;;;;7.63;6.10;;;;;;;;;;5077008;28;20190;-66
2023/06/24 09:42:50;;;;;;;8.07;5.70;;;;;;;;;;5077370;28;20602;-65
2023/06/24 09:45:20;;;;;;;7.77;5.67;;;;;;;;;;5078335;28;20173;-66
2023/06/24 09:47:46;;;;;;;10.10;7.13;;;;;;;;;;5077268;28;20667;-66
2023/06/24 09:50:12;;;;;;;7.67;6.27;;;;;;;;;;5075997;28;20355;-67
2023/06/24 09:52:38;;;;;;;9.20;5.97;;;;;;;;;;5077063;28;20627;-68
2023/06/24 09:55:04;;;;;;;8.07;5.23;;;;;;;;;;5075929;28;20189;-66
2023/06/24 09:57:32;;;;;;;7.80;5.40;;;;;;;;;;5076441;28;20205;-66
2023/06/24 09:59:59;;;;;;;8.27;4.73;;;;;;;;;;5077057;28;20197;-67
2023/06/24 10:02:25;;;;;;;7.93;4.63;;;;;;;;;;5076856;28;20584;-66
2023/06/24 10:04:52;;;;;;;4.97;4.57;;;;;;;;;;5074882;28;20562;-66
2023/06/24 10:07:18;;;;;;;6.23;4.60;;;;;;;;;;5075416;28;20193;-68
2023/06/24 10:09:44;;;;;;;5.33;4.43;;;;;;;;;;5073999;28;20797;-67
2023/06/24 10:12:10;;;;;;;5.87;5.20;;;;;;;;;;5073651;28;20652;-68
2023/06/24 10:14:36;;;;;;;5.53;4.93;;;;;;;;;;5074990;28;20177;-67
2023/06/24 10:17:03;;;;;;;4.93;4.43;;;;;;;;;;5073510;28;20255;-68
2023/06/24 10:19:29;;;;;;;6.10;5.03;;;;;;;;;;5072464;28;20382;-67
2023/06/24 10:21:59;;;;;;;4.57;4.00;;;;;;;;;;5074408;28;20462;-67
2023/06/24 10:24:32;;;;;;;4.82;4.30;;;;;;;;;;5074919;28;20375;-68
2023/06/24 10:27:03;;;;;;;7.53;4.90;;;;;;;;;;5073686;28;20390;-66
2023/06/24 10:29:38;;;;;;;5.15;4.65;;;;;;;;;;5075161;28;20467;-67
2023/06/24 10:32:05;;;;;;;6.28;4.70;;;;;;;;;;5075612;28;20422;-68
2023/06/24 10:34:32;;;;;;;5.47;4.72;;;;;;;;;;5074633;28;20419;-67
2023/06/24 10:37:01;;;;;;;4.70;4.30;;;;;;;;;;5075553;28;20908;-67
2023/06/24 10:39:40;;;;;;;4.47;3.73;;;;;;;;;;5074516;28;20395;-68
2023/06/24 10:42:24;;;;;;;4.13;3.80;;;;;;;;;;5074950;28;20383;-69
2023/06/24 10:44:51;;;;;;;4.40;3.80;;;;;;;;;;5075462;28;20379;-70
2023/06/24 10:47:17;;;;;;;8.27;4.40;;;;;;;;;;5073933;28;20396;-69
2023/06/24 10:49:43;;;;;;;;;;;;;;;;;;5075336;28;20028;-69
2023/06/24 10:52:09;;;;;;;;;;;;;;;;;;5073956;28;19915;-68
2023/06/24 10:54:35;;;;;;;;;;;;;;;;;;5076261;28;19900;-69
2023/06/24 10:57:01;;;;;;;;;;;;;;;;;;5073977;28;20297;-69
2023/06/24 10:59:27;;;;;;;;;;;;;;;;;;5073756;28;20362;-68
2023/06/24 11:01:53;;;;;;;;;;;;;;;;;;5074963;28;19992;-68
2023/06/24 11:04:19;;;;;;;;;;;;;;;;;;5073367;28;19928;-68
2023/06/24 11:06:45;;;;;;;;;;;;;;;;;;5074780;28;20362;-68
2023/06/24 11:09:11;;;;;;;;;;;;;;;;;;5074398;28;19954;-68
2023/06/24 11:11:37;;;;;;;;;;;;;;;;;;5072968;28;19911;-68
2023/06/24 11:14:02;;;;;;;;;;;;;;;;;;5073007;28;19927;-68
2023/06/24 11:16:28;;;;;;;;;;;;;;;;;;5074423;28;20281;-69
2023/06/24 11:18:54;;;;;;;;;;;;;;;;;;5072866;28;19905;-69
2023/06/24 11:21:20;;;;;;;;;;;;;;;;;;5072795;28;19991;-69
2023/06/24 11:23:46;;;;;;;;;;;;;;;;;;5074159;28;20389;-68
2023/06/24 11:26:12;;;;;;;;;;;;;;;;;;5073592;28;19956;-69
2023/06/24 11:28:38;;;;;;;4.27;3.87;;;;;;;;;;5074237;28;20657;-69
2023/06/24 11:31:10;;;;;;;7.50;4.03;;;;;;;;;;5072552;28;20202;-68
2023/06/24 11:33:36;;;;;;;5.07;4.20;;;;;;;;;;5073885;28;20265;-68
2023/06/24 11:36:02;;;;;;;5.07;4.00;;;;;;;;;;5072725;28;20622;-68
2023/06/24 11:38:31;;;;;;;4.30;3.70;;;;;;;;;;5073702;28;20201;-69
2023/06/24 11:40:58;;;;;;;4.27;3.80;;;;;;;;;;5073965;28;20189;-68
2023/06/24 11:43:26;;;;;;;4.27;3.43;;;;;;;;;;5073920;28;20177;-69
2023/06/24 11:45:52;;;;;;;4.23;3.77;;;;;;;;;;5073400;28;20178;-69
2023/06/24 11:48:20;;;;;;;4.20;3.80;;;;;;;;;;5072064;28;20658;-69
2023/06/24 11:50:54;;;;;;;3.90;3.60;;;;;;;;;;5073258;28;20210;-69
2023/06/24 11:53:29;;;;;;;4.57;4.17;;;;;;;;;;5074864;28;20189;-67
2023/06/24 11:55:56;;;;;;;4.70;4.00;;;;;;;;;;5076187;28;20169;-67
2023/06/24 11:58:22;;;;;;;3.50;3.20;;;;;;;;;;5075932;28;20202;-67
2023/06/24 12:00:50;;;;;;;4.20;3.67;;;;;;;;;;5076480;28;20574;-67
2023/06/24 12:03:16;;;;;;;4.40;4.00;;;;;;;;;;5074944;28;20189;-67
2023/06/24 12:05:44;;;;;;;4.27;3.87;;;;;;;;;;5076200;28;20652;-67
2023/06/24 12:08:11;;;;;;;5.73;4.23;;;;;;;;;;5076596;28;20185;-68
2023/06/24 12:10:38;;;;;;;4.93;3.90;;;;;;;;;;5075843;28;20233;-67
2023/06/24 12:13:05;;;;;;;4.13;3.73;;;;;;;;;;5074250;28;20181;-67
2023/06/24 12:15:32;;;;;;;4.40;3.60;;;;;;;;;;5074442;28;20177;-67
2023/06/24 12:17:58;;;;;;;4.53;4.13;;;;;;;;;;5075704;28;20201;-68
2023/06/24 12:20:25;;;;;;;7.80;4.20;;;;;;;;;;5076487;28;20197;-67
2023/06/24 12:22:51;;;;;;;6.33;4.00;;;;;;;;;;5074457;28;20174;-67
2023/06/24 12:25:17;;;;;;;4.67;4.03;;;;;;;;;;5074107;28;20182;-67
2023/06/24 12:27:43;;;;;;;8.57;4.03;;;;;;;;;;5079304;28;20185;-67
2023/06/24 12:30:10;;;;;;;4.37;3.27;;;;;;;;;;5079503;28;20201;-67
2023/06/24 12:32:36;;;;;;;4.70;4.10;;;;;;;;;;5077943;28;20182;-67
2023/06/24 12:35:03;;;;;;;4.20;3.90;;;;;;;;;;5079298;28;20189;-66
2023/06/24 12:37:33;;;;;;;4.53;4.03;;;;;;;;;;5082295;28;20284;-65
2023/06/24 12:40:03;;;;;;;4.30;3.70;;;;;;;;;;5081792;28;20200;-67
2023/06/24 12:42:28;;;;;;;4.53;3.70;;;;;;;;;;5081865;28;20177;-66
2023/06/24 12:44:55;;;;;;;4.40;4.00;;;;;;;;;;5081709;28;20178;-66
2023/06/24 12:47:21;;;;;;;3.70;3.40;;;;;;;;;;5081291;28;20240;-66
2023/06/24 12:49:47;;;;;;;4.37;3.97;;;;;;;;;;5080726;28;20190;-66
2023/06/24 12:52:14;;;;;;;19.70;4.20;;;;;;;;;;5092677;22;20248;-64
2023/06/24 12:54:39;;;;;;;5.60;4.03;;;;;;;;;;5075444;28;20174;-65
2023/06/24 12:57:06;;;;;;;4.18;3.80;;;;;;;;;;5076173;28;20205;-67
2023/06/24 12:59:32;;;;;;;3.90;3.60;;;;;;;;;;5076548;28;20169;-66
2023/06/24 13:01:57;;;;;;;4.32;3.92;;;;;;;;;;5076232;28;20694;-64
2023/06/24 13:04:24;;;;;;;8.85;3.80;;;;;;;;;;5076170;28;20666;-66
2023/06/24 13:06:50;;;;;;;3.88;3.58;;;;;;;;;;5076075;28;20261;-65
2023/06/24 13:09:16;;;;;;;5.67;4.07;;;;;;;;;;5074740;28;20197;-66
2023/06/24 13:11:42;;;;;;;3.97;3.65;;;;;;;;;;5074837;28;20642;-65
2023/06/24 13:14:09;;;;;;;3.97;3.58;;;;;;;;;;5076242;28;20730;-65
2023/06/24 13:16:35;;;;;;;3.53;3.22;;;;;;;;;;5075989;28;20284;-65
2023/06/24 13:19:01;;;;;;;3.60;3.30;;;;;;;;;;5074884;28;20174;-66
2023/06/24 13:21:27;;;;;;;3.67;3.38;;;;;;;;;;5076257;28;20205;-64
2023/06/24 13:23:53;;;;;;;3.88;3.58;;;;;;;;;;5075821;28;20319;-65
2023/06/24 13:26:19;;;;;;;3.40;3.10;;;;;;;;;;5074663;28;20174;-66
2023/06/24 13:28:45;;;;;;;3.55;3.25;;;;;;;;;;5075957;28;20177;-66
2023/06/24 13:31:11;;;;;;;4.10;3.70;;;;;;;;;;5074432;28;20193;-65
2023/06/24 13:33:37;;;;;;;5.07;3.30;;;;;;;;;;5075771;28;20308;-65
2023/06/24 13:36:04;;;;;;;3.60;3.30;;;;;;;;;;5075652;28;20182;-65
2023/06/24 13:38:30;;;;;;;3.80;3.50;;;;;;;;;;5073397;28;20206;-66
2023/06/24 13:40:56;;;;;;;4.20;3.80;;;;;;;;;;5075528;28;20190;-66
2023/06/24 13:43:22;;;;;;;3.75;3.40;;;;;;;;;;5074361;28;20204;-67
2023/06/24 13:45:48;;;;;;;3.65;3.38;;;;;;;;;;5075706;28;20223;-66
2023/06/24 13:48:14;;;;;;;3.95;3.33;;;;;;;;;;5074123;28;20247;-66
2023/06/24 13:50:40;;;;;;;3.13;2.92;;;;;;;;;;5075467;28;20521;-66
2023/06/24 13:53:06;;;;;;;3.80;3.50;;;;;;;;;;5075487;28;20628;-66
2023/06/24 13:55:32;;;;;;;3.78;3.45;;;;;;;;;;5075351;28;20648;-66
2023/06/24 13:57:58;;;;;;;4.55;3.45;;;;;;;;;;5075534;28;20228;-67
2023/06/24 14:00:25;;;;;;;3.70;3.40;;;;;;;;;;5073846;28;20185;-67
2023/06/24 14:02:51;;;;;;;3.90;3.30;;;;;;;;;;5075492;28;20169;-66
2023/06/24 14:05:17;;;;;;;4.05;3.42;;;;;;;;;;5075059;28;20175;-66
2023/06/24 14:07:43;;;;;;;4.10;3.80;;;;;;;;;;5075359;28;20193;-66
2023/06/24 14:10:09;;;;;;;5.85;4.05;;;;;;;;;;5075062;28;20174;-66
2023/06/24 14:12:35;;;;;;;3.72;3.42;;;;;;;;;;5074977;28;20205;-66
2023/06/24 14:15:01;;;;;;;3.58;3.30;;;;;;;;;;5077045;28;20177;-66
2023/06/24 14:17:27;;;;;;;3.72;3.42;;;;;;;;;;5075149;28;20266;-66
2023/06/24 14:19:53;;;;;;;4.10;3.70;;;;;;;;;;5075366;28;20689;-67
2023/06/24 14:22:19;;;;;;;4.93;3.05;;;;;;;;;;5074917;28;20198;-65
2023/06/24 14:24:45;;;;;;;4.15;3.50;;;;;;;;;;5073387;28;20174;-66
2023/06/24 14:27:12;;;;;;;3.90;3.60;;;;;;;;;;5074607;28;20220;-66
2023/06/24 14:29:38;;;;;;;4.97;3.95;;;;;;;;;;5074870;28;20636;-66
2023/06/24 14:32:04;;;;;;;3.28;3.08;;;;;;;;;;5073122;28;20209;-66
2023/06/24 14:34:32;;;;;;;4.43;3.78;;;;;;;;;;5074486;28;20223;-66